Weather observations for the past three days for
Stanley, Stanley Ranger Station
Imperial (Metric)
Date Time (mdt) Wind (mph) Vis. (mi.) Weather Sky Cond. Temperature (ºF) Relative Humidity Wind Chill (°F) Heat Index (°F) Pressure Precipitation (in)
Air Dwpt 6 hour altimeter (in) sea level (mb) 1 hr 3 hr 6 hr
Max. Min.
10 09:51 Vrbl 3 0.00 NULL NULL 45 27 49% 30.26 1020.1
10 08:51 Calm 0.00 NULL NULL 37.9 26.1 62% 30.27 1020.7
10 07:51 E 3 0.00 NULL NULL 30.9 24.1 76% 30.28 1020.5
10 06:51 Calm 0.00 NULL NULL 25 21.9 88% 30.28 1020.6
10 05:51 S 3 0.00 NULL NULL 26.1 21.9 37 25 84% 30.28 1020.3
10 04:51 Calm 0.00 NULL NULL 26.1 21.9 84% 30.27 1020.0
10 03:51 Calm 0.00 NULL NULL 27 23 85% 30.26 1019.8
10 02:51 Vrbl 3 0.00 NULL NULL 30 23 75% 30.27 1019.6
10 01:51 SE 3 0.00 NULL NULL 33.1 24.1 70% 30.25 1018.9
10 00:51 S 5 0.00 NULL NULL 35.1 24.1 64% 32 30.25 1018.9
09 23:51 S 3 0.00 NULL NULL 35.1 24.1 63 35.1 64% 30.24 1018.8
09 22:51 S 5 0.00 NULL NULL 39 23 53% 36 30.23 1018.5
09 21:51 S 3 0.00 NULL NULL 39.9 24.1 53% 30.21 1018.1
09 20:51 S 3 0.00 NULL NULL 48 25 41% 30.18 1017.5
09 19:51 NW 5 0.00 NULL NULL 59 19 21% 30.17 1016.4
09 18:51 N 8 0.00 NULL NULL 62.1 18 18% 30.16 1016.4
09 17:51 Vrbl 5 0.00 NULL NULL 63 17.1 63 54 17% 30.16 1016.5
09 16:51 Vrbl 5 0.00 NULL NULL 63 15.1 15% 30.16 1016.3
09 15:51 W 9 G 20 0.00 NULL NULL 62.1 15.1 16% 30.17 1016.4
09 14:51 Vrbl 3 0.00 NULL NULL 61 18 19% 30.18 1016.9
09 13:51 N 8 0.00 NULL NULL 60.1 18 19% 30.18 1017.0
09 12:51 N 8 G 20 0.00 NULL NULL 57.9 18 21% 30.19 1017.1
09 11:51 NE 6 0.00 NULL NULL 55.9 21 55.9 23 26% 30.19 1017.1
09 10:51 Calm 0.00 NULL NULL 51.1 17.1 26% 30.2 1017.4
09 09:51 N 3 0.00 NULL NULL 46.9 27 46% 30.2 1017.1
09 08:51 Calm 0.00 NULL NULL 37.9 24.1 57% 30.21 1017.9
09 07:51 E 3 0.00 NULL NULL 30.9 21.9 69% 30.21 1018.1
09 06:51 Calm 0.00 NULL NULL 25 21 85% 30.19 1017.8
09 05:51 Vrbl 3 0.00 NULL NULL 24.1 19.9 36 24.1 84% 30.18 1017.5
09 04:51 Calm 0.00 NULL NULL 26.1 21 81% 30.17 1016.7
09 03:51 Calm 0.00 NULL NULL 28.9 21.9 75% 30.16 1015.8
09 02:51 S 3 0.00 NULL NULL 28 21 75% 30.15 1015.5
09 01:51 Calm 0.00 NULL NULL 30 21.9 72% 30.14 1015.4
09 00:51 Calm 0.00 NULL NULL 33.1 21.9 64% 30.14 1014.7
08 23:51 Vrbl 3 0.00 NULL NULL 36 21.9 62.1 35.1 57% 30.13 1014.3
08 22:51 S 6 0.00 NULL NULL 39 23 53% 35 30.13 1014.2
08 21:51 Vrbl 3 0.00 NULL NULL 46 23 40% 30.12 1014.2
08 20:51 NW 3 0.00 NULL NULL 52 21 30% 30.1 1013.8
08 19:51 NW 7 0.00 NULL NULL 57 19.9 24% 30.07 1013.1
08 18:51 NW 5 0.00 NULL NULL 60.1 16 18% 30.06 1013.3
08 17:51 N 9 0.00 NULL NULL 62.1 21.9 64.9 59 21% 30.07 1013.0
08 16:51 NW 8 G 18 0.00 NULL NULL 61 19.9 20% 30.08 1013.2
08 15:51 Vrbl 7 G 18 0.00 NULL NULL 64 18 17% 30.08 1012.6
08 14:51 NW 9 G 20 0.00 NULL NULL 63 18 17% 30.08 1012.2
08 13:51 Vrbl 7 0.00 NULL NULL 62.1 16 17% 30.08 1012.8
08 12:51 N 10 G 17 0.00 NULL NULL 61 16 17% 30.09 1012.8
08 11:51 Calm 0.00 NULL NULL 59 19.9 59 26.1 22% 30.1 1013.1
08 10:51 Vrbl 6 0.00 NULL NULL 55.9 30 37% 30.1 1013.1
08 09:51 N 3 0.00 NULL NULL 48 30.9 52% 30.11 1014.6
08 08:51 Vrbl 3 0.00 NULL NULL 39.9 28.9 65% 30.13 1015.5
08 07:51 E 3 0.00 NULL NULL 33.1 26.1 75% 30.13 1014.9
08 06:51 Calm 0.00 NULL NULL 26.1 24.1 92% 30.12 1015.0
08 05:51 S 3 0.00 NULL NULL 27 24.1 37 27 89% 30.11 1014.3
08 04:51 S 5 0.00 NULL NULL 28.9 25 85% 25 30.11 1014.2
08 03:51 Calm 0.00 NULL NULL 30 26.1 85% 30.1 1013.5
08 02:51 Vrbl 3 0.00 NULL NULL 34 25 70% 30.1 1013.0
08 01:51 S 3 0.00 NULL NULL 30.9 25 79% 30.1 1013.5
08 00:51 Vrbl 3 0.00 NULL NULL 35.1 26.1 70% 30.09 1013.0
07 23:51 S 3 0.00 NULL NULL 37 25 63 36 62% 30.1 1013.1
07 22:51 Calm 0.00 NULL NULL 42.1 24.1 49% 30.09 1012.6
07 21:51 S 5 0.00 NULL NULL 42.1 25 51% 40 30.07 1012.3
07 20:51 Calm 0.00 NULL NULL 46 27 47% 30.06 1012.3
07 19:51 Vrbl 6 0.00 NULL NULL 57.9 21 24% 30.04 1011.0
07 18:51 NW 9 G 17 0.00 NULL NULL 61 23 23% 30.03 1011.5
07 17:51 NW 9 G 16 0.00 NULL NULL 63 21.9 64 57 21% 30.03 1010.5
07 16:51 N 12 G 20 0.00 NULL NULL 63 19.9 19% 30.03 1010.1
07 15:51 NW 8 G 16 0.00 NULL NULL 64 19.9 18% 30.04 1010.1
07 14:51 NW 9 G 18 0.00 NULL NULL 63 19 18% 30.05 1010.6
07 13:51 NW 9 0.00 NULL NULL 62.1 19 19% 30.06 1010.6
07 12:51 W 9 0.00 NULL NULL 60.1 19 20% 30.07 1011.0
07 11:51 N 6 0.00 NULL NULL 59 18 60.1 30 20% 30.07 1011.4
07 10:51 Calm 0.00 NULL NULL 55 25 31% 30.08 1012.0
Date Time (mdt) Wind (mph) Vis. (mi.) Weather Sky Cond. Air Dwpt Max. Min. Relative Humidity Wind Chill (°F) Heat Index (°F) altimeter (in) sea level (mb) 1 hr 3 hr 6 hr
6 hour
Temperature (ºF) Pressure Precipitation (in)